Terminal Aerodrome Forecast
Issued by NWS

Current Version | Previous Version | Text Only | Print | Product List | Glossary On
Versions: 1 2 3 4 5 6 7 8 9 10 11 12 13 14 15 16 17 18 19 20 21
326 FTUS41 KILN 081733 AAB TAFLUK TAF AMD KLUK 081733Z 0818/0918 28015G22KT P6SM SCT035 FM081900 28015G22KT P6SM OVC035 FM090000 28011KT P6SM OVC028 FM091000 28007KT P6SM OVC020 FM091500 26007KT P6SM BKN028=

USA.gov is the U.S. government's official web portal to all federal, state and local government web resources and services.